createdAt,value
2022-08-26T00:00:14.119Z,46.53
2022-08-26T00:05:17.759Z,46.40
2022-08-26T00:10:22.615Z,47.03
2022-08-26T00:15:28.928Z,46.72
2022-08-26T00:20:34.831Z,46.35
2022-08-26T00:25:42.546Z,46.30
2022-08-26T00:30:48.076Z,45.85
2022-08-26T00:35:54.565Z,46.50
2022-08-26T00:41:00.448Z,46.55
2022-08-26T00:46:09.254Z,47.28
2022-08-26T00:51:18.175Z,46.38
2022-08-26T00:56:27.482Z,46.40
2022-08-26T01:01:31.197Z,45.90
2022-08-26T01:06:34.537Z,46.00
2022-08-26T01:11:39.711Z,46.05
2022-08-26T01:16:44.271Z,45.60
2022-08-26T01:21:53.201Z,46.45
2022-08-26T01:27:01.519Z,47.03
2022-08-26T01:32:08.473Z,47.22
2022-08-26T01:37:15.929Z,46.13
2022-08-26T01:42:23.372Z,45.88
2022-08-26T01:47:30.257Z,46.63
2022-08-26T01:52:37.076Z,47.60
2022-08-26T01:57:42.054Z,45.55
2022-08-26T02:02:49.261Z,47.25
2022-08-26T02:07:52.257Z,46.03
2022-08-26T02:12:56.571Z,46.47
2022-08-26T02:18:00.545Z,46.80
2022-08-26T02:23:03.931Z,46.45
2022-08-26T02:28:08.251Z,46.95
2022-08-26T02:33:11.647Z,46.47
2022-08-26T02:38:14.646Z,46.45
2022-08-26T02:43:23.868Z,46.65
2022-08-26T02:48:34.714Z,45.88
2022-08-26T02:53:38.767Z,46.83
2022-08-26T02:58:43.568Z,46.65
2022-08-26T03:03:46.425Z,46.13
2022-08-26T03:08:52.821Z,45.88
2022-08-26T03:13:57.121Z,45.88
2022-08-26T03:19:00.951Z,46.53
2022-08-26T03:24:04.147Z,46.55
2022-08-26T03:29:25.975Z,46.50
2022-08-26T03:34:31.947Z,46.40
2022-08-26T03:39:35.192Z,46.50
2022-08-26T03:44:42.240Z,45.90
2022-08-26T03:49:45.330Z,48.15
2022-08-26T03:54:48.226Z,45.65
2022-08-26T03:59:52.824Z,45.83
2022-08-26T04:04:56.586Z,45.75
2022-08-26T04:10:00.129Z,45.47
2022-08-26T04:15:05.473Z,45.85
2022-08-26T04:20:09.739Z,45.28
2022-08-26T04:25:13.779Z,45.88
2022-08-26T04:30:18.190Z,45.90
2022-08-26T04:35:25.457Z,45.72
2022-08-26T04:40:29.143Z,46.65
2022-08-26T04:45:36.264Z,45.85
2022-08-26T04:50:39.239Z,46.10
2022-08-26T04:55:48.522Z,45.53
2022-08-26T05:00:56.329Z,46.42
2022-08-26T05:05:59.726Z,45.47
2022-08-26T05:11:07.067Z,45.92
2022-08-26T05:16:15.502Z,45.92
2022-08-26T05:21:20.874Z,45.75
2022-08-26T05:26:25.796Z,46.10
2022-08-26T05:31:32.595Z,46.05
2022-08-26T05:36:36.977Z,46.25
2022-08-26T05:41:42.884Z,46.10
2022-08-26T05:46:49.400Z,46.20
2022-08-26T05:51:54.129Z,46.05
2022-08-26T05:56:57.561Z,46.63
2022-08-26T06:02:03.200Z,46.38
2022-08-26T06:07:06.256Z,46.83
2022-08-26T06:12:12.919Z,46.72
2022-08-26T06:17:19.334Z,47.65
2022-08-26T06:22:40.273Z,47.47
2022-08-26T06:27:43.540Z,46.95
2022-08-26T06:32:49.431Z,48.60
2022-08-26T06:37:52.423Z,47.63
2022-08-26T06:42:55.485Z,47.35
2022-08-26T06:47:59.727Z,47.30
2022-08-26T06:53:02.690Z,47.45
2022-08-26T06:58:06.326Z,47.38
2022-08-26T07:03:11.333Z,46.75
2022-08-26T07:08:14.635Z,48.35
2022-08-26T07:13:18.193Z,47.28
2022-08-26T07:18:36.718Z,46.97
2022-08-26T07:23:40.196Z,47.10
2022-08-26T07:28:44.216Z,46.80
2022-08-26T07:33:49.115Z,47.05
2022-08-26T07:38:53.898Z,46.85
2022-08-26T07:43:56.966Z,46.08
2022-08-26T07:49:01.768Z,46.67
2022-08-26T07:54:05.501Z,46.88
2022-08-26T07:59:13.560Z,45.88
2022-08-26T08:04:26.122Z,47.15
2022-08-26T08:09:29.516Z,46.60
2022-08-26T08:14:32.442Z,47.00
2022-08-26T08:19:39.170Z,47.58
2022-08-26T08:24:42.715Z,46.75
2022-08-26T08:29:46.539Z,47.97
2022-08-26T08:34:51.001Z,47.47
2022-08-26T08:39:53.975Z,47.65
2022-08-26T08:44:59.627Z,46.90
2022-08-26T08:50:12.979Z,47.30
2022-08-26T08:55:18.274Z,47.30
2022-08-26T09:00:30.296Z,47.30
2022-08-26T09:05:42.610Z,47.70
2022-08-26T09:10:53.985Z,47.22
2022-08-26T09:16:06.744Z,47.97
2022-08-26T09:21:14.141Z,48.13
2022-08-26T09:26:19.965Z,48.20
2022-08-26T09:31:26.037Z,48.63
2022-08-26T09:36:41.494Z,47.78
2022-08-26T09:41:44.522Z,48.33
2022-08-26T09:46:56.042Z,48.17
2022-08-26T09:52:15.090Z,47.47
2022-08-26T09:57:22.427Z,48.60
2022-08-26T10:02:36.953Z,49.58
2022-08-26T10:07:45.173Z,49.35
2022-08-26T10:12:56.429Z,48.35
2022-08-26T10:18:05.439Z,48.20
2022-08-26T10:23:15.346Z,47.60
2022-08-26T10:28:23.729Z,48.58
2022-08-26T10:33:26.756Z,48.00
2022-08-26T10:38:35.590Z,48.22
2022-08-26T10:43:43.782Z,48.03
2022-08-26T10:48:52.126Z,48.25
2022-08-26T10:53:59.893Z,47.90
2022-08-26T10:59:12.510Z,48.20
2022-08-26T11:04:29.360Z,48.60
2022-08-26T11:09:49.695Z,48.20
2022-08-26T11:14:58.891Z,51.25
2022-08-26T11:20:08.588Z,48.10
2022-08-26T11:25:15.220Z,48.60
2022-08-26T11:30:35.159Z,48.22
2022-08-26T11:35:52.233Z,48.17
2022-08-26T11:41:11.122Z,48.40
2022-08-26T11:46:25.002Z,49.22
2022-08-26T11:51:28.069Z,48.60
2022-08-26T11:56:36.130Z,48.03
2022-08-26T12:01:41.480Z,48.53
2022-08-26T12:06:49.737Z,48.45
2022-08-26T12:12:12.098Z,49.15
2022-08-26T12:17:17.791Z,48.35
2022-08-26T12:22:27.213Z,48.63
2022-08-26T12:27:33.634Z,48.53
2022-08-26T12:32:58.171Z,48.60
2022-08-26T12:38:02.402Z,48.30
2022-08-26T12:43:08.904Z,47.72
2022-08-26T12:48:13.837Z,49.25
2022-08-26T12:53:24.079Z,48.45
2022-08-26T12:58:31.611Z,48.08
2022-08-26T13:03:44.477Z,48.40
2022-08-26T13:08:48.442Z,48.83
2022-08-26T13:13:56.621Z,48.58
2022-08-26T13:19:01.629Z,47.78
2022-08-26T13:24:07.348Z,47.97
2022-08-26T13:29:12.610Z,47.47
2022-08-26T13:34:19.063Z,52.05
2022-08-26T13:39:22.608Z,50.95
2022-08-26T13:44:27.319Z,49.30
2022-08-26T13:49:30.317Z,51.63
2022-08-26T13:54:33.324Z,47.35
2022-08-26T13:59:37.547Z,47.55
2022-08-26T14:04:41.531Z,47.10
2022-08-26T14:09:44.506Z,47.75
2022-08-26T14:14:48.821Z,47.10
2022-08-26T14:19:52.394Z,47.63
2022-08-26T14:24:56.440Z,47.60
2022-08-26T14:30:00.784Z,47.00
2022-08-26T14:35:03.879Z,47.78
2022-08-26T14:40:08.999Z,46.78
2022-08-26T14:45:15.949Z,47.30
2022-08-26T14:50:22.672Z,47.63
2022-08-26T14:55:25.764Z,48.78
2022-08-26T15:00:31.131Z,49.90
2022-08-26T15:05:35.171Z,48.55
2022-08-26T15:10:38.625Z,48.95
2022-08-26T15:15:42.941Z,48.28
2022-08-26T15:20:45.823Z,52.67
2022-08-26T15:25:48.847Z,51.47
2022-08-26T15:30:53.157Z,52.13
2022-08-26T15:35:56.122Z,51.58
2022-08-26T15:41:02.931Z,51.03
2022-08-26T15:46:11.522Z,51.17
2022-08-26T15:51:22.318Z,50.55
2022-08-26T15:56:26.690Z,49.70
2022-08-26T16:01:32.583Z,51.00
2022-08-26T16:06:37.568Z,51.58
2022-08-26T16:11:40.499Z,51.72
2022-08-26T16:16:44.815Z,52.47
2022-08-26T16:21:47.992Z,52.78
2022-08-26T16:26:50.895Z,52.33
2022-08-26T16:31:55.563Z,51.97
2022-08-26T16:36:58.525Z,52.00
2022-08-26T16:42:01.517Z,52.55
2022-08-26T16:47:05.953Z,50.80
2022-08-26T16:52:10.502Z,51.22
2022-08-26T16:57:14.511Z,51.10
2022-08-26T17:02:18.791Z,51.63
2022-08-26T17:07:21.692Z,52.33
2022-08-26T17:12:24.741Z,50.13
2022-08-26T17:17:29.390Z,52.08
2022-08-26T17:22:34.649Z,51.53
2022-08-26T17:27:37.770Z,50.75
2022-08-26T17:32:43.573Z,51.60
2022-08-26T17:37:47.536Z,51.95
2022-08-26T17:42:51.066Z,52.70
2022-08-26T17:47:57.055Z,51.25
2022-08-26T17:53:00.139Z,50.97
2022-08-26T17:58:10.291Z,50.83
2022-08-26T18:03:19.990Z,50.92
2022-08-26T18:08:26.010Z,49.88
2022-08-26T18:13:28.865Z,50.53
2022-08-26T18:18:33.707Z,50.30
2022-08-26T18:23:36.989Z,52.55
2022-08-26T18:28:39.979Z,49.65
2022-08-26T18:33:44.705Z,50.70
2022-08-26T18:38:50.392Z,49.30
2022-08-26T18:43:54.514Z,53.33
2022-08-26T18:48:58.834Z,50.90
2022-08-26T18:54:03.616Z,51.10
2022-08-26T18:59:07.934Z,49.42
2022-08-26T19:04:15.404Z,48.97
2022-08-26T19:09:19.769Z,50.67
2022-08-26T19:14:23.852Z,51.60
2022-08-26T19:19:28.543Z,50.63
2022-08-26T19:24:31.825Z,50.53
2022-08-26T19:29:36.757Z,49.50
2022-08-26T19:34:41.010Z,50.05
2022-08-26T19:39:43.906Z,49.90
2022-08-26T19:45:04.582Z,50.35
2022-08-26T19:50:12.478Z,50.17
2022-08-26T19:55:18.523Z,50.17
2022-08-26T20:00:24.509Z,51.50
2022-08-26T20:05:29.111Z,50.65
2022-08-26T20:10:32.014Z,49.75
2022-08-26T20:15:35.129Z,49.80
2022-08-26T20:20:56.907Z,48.50
2022-08-26T20:25:59.782Z,50.35
2022-08-26T20:31:04.281Z,49.58
2022-08-26T20:36:09.635Z,49.08
2022-08-26T20:41:12.724Z,48.92
2022-08-26T20:46:17.910Z,49.10
2022-08-26T20:51:24.856Z,49.63
2022-08-26T20:56:28.086Z,50.03
2022-08-26T21:01:34.544Z,49.53
2022-08-26T21:06:39.546Z,49.35
2022-08-26T21:11:45.742Z,49.55
2022-08-26T21:16:48.914Z,48.60
2022-08-26T21:21:53.193Z,47.65
2022-08-26T21:26:56.095Z,48.13
2022-08-26T21:31:59.113Z,49.35
2022-08-26T21:37:03.396Z,49.50
2022-08-26T21:42:11.933Z,50.42
2022-08-26T21:47:14.861Z,49.70
2022-08-26T21:52:21.211Z,48.92
2022-08-26T21:57:24.073Z,49.22
2022-08-26T22:02:27.017Z,48.47
2022-08-26T22:07:31.315Z,49.08
2022-08-26T22:12:34.265Z,48.50
2022-08-26T22:17:37.822Z,49.28
2022-08-26T22:22:42.039Z,51.03
2022-08-26T22:27:45.631Z,48.80
2022-08-26T22:32:48.621Z,50.17
2022-08-26T22:37:52.879Z,49.97
2022-08-26T22:43:00.473Z,49.58
2022-08-26T22:48:05.014Z,49.22
2022-08-26T22:53:09.504Z,49.47
2022-08-26T22:58:13.519Z,50.80
2022-08-26T23:03:17.557Z,50.45
2022-08-26T23:08:22.338Z,50.10
2022-08-26T23:13:25.230Z,48.08
2022-08-26T23:18:28.170Z,48.78
2022-08-26T23:23:32.518Z,49.50
2022-08-26T23:28:36.487Z,49.83
2022-08-26T23:33:58.604Z,50.15
2022-08-26T23:39:03.199Z,47.97
2022-08-26T23:44:06.503Z,51.40
2022-08-26T23:49:09.666Z,51.20
2022-08-26T23:54:13.967Z,51.55
2022-08-26T23:59:16.866Z,51.38
